Time;durP1;ratioP1;P1;durP2;ratioP2;P2;SDS_P1;SDS_P2;PMS_P1;PMS_P2;Temp;Humidity;BMP_temperature;BMP_pressure;BME280_temperature;BME280_humidity;BME280_pressure;Samples;Min_cycle;Max_cycle;Signal;HPM_P1;HPM_P2
2024/02/22 00:00:32;;;;;;;1.00;0.70;;;8.20;99.90;;;;;;5035062;28;20423;-68
2024/02/22 00:02:58;;;;;;;1.20;0.70;;;8.20;99.90;;;;;;5039992;28;20189;-68
2024/02/22 00:05:23;;;;;;;1.07;0.70;;;8.20;99.90;;;;;;5040249;28;20461;-68
2024/02/22 00:07:49;;;;;;;0.97;0.63;;;8.20;99.90;;;;;;5045309;28;20640;-68
2024/02/22 00:10:15;;;;;;;0.87;0.70;;;8.20;99.90;;;;;;5040053;28;20189;-68
2024/02/22 00:12:41;;;;;;;1.03;0.67;;;8.20;99.90;;;;;;5040305;28;20210;-69
2024/02/22 00:15:07;;;;;;;1.40;0.90;;;8.20;99.90;;;;;;5049694;28;20292;-68
2024/02/22 00:17:33;;;;;;;1.10;0.60;;;8.20;99.90;;;;;;5047236;28;20490;-68
2024/02/22 00:19:59;;;;;;;0.70;0.50;;;8.30;99.90;;;;;;5034974;28;20972;-68
2024/02/22 00:22:24;;;;;;;1.20;0.83;;;8.30;99.90;;;;;;5038149;28;20193;-68
2024/02/22 00:24:50;;;;;;;2.13;0.97;;;8.30;99.90;;;;;;5051318;28;20864;-68
2024/02/22 00:27:16;;;;;;;1.47;0.90;;;8.30;99.90;;;;;;5034850;28;20228;-67
2024/02/22 00:29:43;;;;;;;1.03;0.70;;;8.30;99.90;;;;;;5046887;28;20233;-69
2024/02/22 00:32:09;;;;;;;1.30;0.70;;;8.30;99.90;;;;;;5054726;28;20464;-68
2024/02/22 00:34:34;;;;;;;1.00;0.70;;;8.40;99.90;;;;;;5041353;28;20193;-67
2024/02/22 00:37:00;;;;;;;1.10;0.60;;;8.40;99.90;;;;;;5057764;28;20436;-68
2024/02/22 00:39:26;;;;;;;1.10;0.57;;;8.30;99.90;;;;;;5057498;28;20194;-68
2024/02/22 00:41:51;;;;;;;0.90;0.70;;;8.40;99.90;;;;;;5040659;28;20251;-68
2024/02/22 00:44:17;;;;;;;0.70;0.57;;;8.40;99.90;;;;;;5058355;28;20481;-68
2024/02/22 00:46:42;;;;;;;0.80;0.60;;;8.40;99.90;;;;;;5045876;28;20255;-68
2024/02/22 00:49:08;;;;;;;0.70;0.50;;;8.40;99.90;;;;;;5038182;28;20208;-67
2024/02/22 00:51:33;;;;;;;1.33;0.60;;;8.40;99.90;;;;;;5045326;28;20470;-68
2024/02/22 00:53:59;;;;;;;1.67;0.67;;;8.40;99.90;;;;;;5041511;28;20329;-68
2024/02/22 00:56:25;;;;;;;0.80;0.60;;;8.40;99.90;;;;;;5047432;28;20203;-69
2024/02/22 00:58:50;;;;;;;1.20;0.53;;;8.50;99.90;;;;;;5058637;28;20216;-70
2024/02/22 01:01:16;;;;;;;0.70;0.50;;;8.50;99.90;;;;;;5040873;28;20273;-68
2024/02/22 01:03:42;;;;;;;0.80;0.60;;;8.50;99.90;;;;;;5038535;28;20190;-69
2024/02/22 01:06:10;;;;;;;1.37;0.60;;;8.50;99.90;;;;;;5043132;28;20967;-68
2024/02/22 01:08:36;;;;;;;0.90;0.50;;;8.50;99.90;;;;;;5047971;28;20182;-67
2024/02/22 01:11:03;;;;;;;0.83;0.50;;;8.50;99.90;;;;;;5054864;28;20428;-69
2024/02/22 01:13:29;;;;;;;0.80;0.50;;;8.50;99.90;;;;;;5056141;28;20483;-67
2024/02/22 01:15:55;;;;;;;0.70;0.40;;;8.50;99.90;;;;;;5050599;28;20424;-68
2024/02/22 01:18:20;;;;;;;0.73;0.50;;;8.50;99.90;;;;;;5052491;28;20822;-67
2024/02/22 01:20:46;;;;;;;0.80;0.50;;;8.50;99.90;;;;;;5047539;28;20181;-69
2024/02/22 01:23:13;;;;;;;0.80;0.60;;;8.50;99.90;;;;;;5051287;28;20190;-68
2024/02/22 01:25:38;;;;;;;0.80;0.50;;;8.50;99.90;;;;;;5044256;28;20725;-68
2024/02/22 01:28:05;;;;;;;0.60;0.40;;;8.50;99.90;;;;;;5052402;28;20600;-68
2024/02/22 01:30:31;;;;;;;0.80;0.50;;;8.50;99.90;;;;;;5040261;28;20236;-68
2024/02/22 01:32:57;;;;;;;0.70;0.50;;;8.50;99.90;;;;;;5041124;28;20888;-68
2024/02/22 01:35:23;;;;;;;1.23;0.60;;;8.50;99.90;;;;;;5051361;28;20284;-67
2024/02/22 01:37:49;;;;;;;0.70;0.50;;;8.60;99.90;;;;;;5047177;28;20554;-69
2024/02/22 01:40:15;;;;;;;0.80;0.50;;;8.50;99.90;;;;;;5055661;28;20240;-69
2024/02/22 01:42:42;;;;;;;0.70;0.50;;;8.50;99.90;;;;;;5049491;28;20341;-69
2024/02/22 01:45:07;;;;;;;0.80;0.50;;;8.50;99.90;;;;;;5044561;28;20563;-68
2024/02/22 01:47:34;;;;;;;0.70;0.50;;;8.60;99.90;;;;;;5039008;28;20460;-69
2024/02/22 01:50:00;;;;;;;0.70;0.50;;;8.60;99.90;;;;;;5036443;28;20496;-68
2024/02/22 01:52:26;;;;;;;0.60;0.47;;;8.60;99.90;;;;;;5054245;28;20511;-69
2024/02/22 01:54:53;;;;;;;0.60;0.40;;;8.60;99.90;;;;;;5048851;28;20504;-69
2024/02/22 01:57:18;;;;;;;0.70;0.50;;;8.60;99.90;;;;;;5042626;28;20440;-69
2024/02/22 01:59:44;;;;;;;0.60;0.40;;;8.60;99.90;;;;;;5054886;28;20420;-68
2024/02/22 02:02:10;;;;;;;1.33;0.60;;;8.60;99.90;;;;;;5046757;28;20474;-67
2024/02/22 02:04:38;;;;;;;0.70;0.40;;;8.60;99.90;;;;;;5049060;28;20402;-68
2024/02/22 02:07:03;;;;;;;0.70;0.50;;;8.60;99.90;;;;;;5032060;28;20232;-67
2024/02/22 02:09:29;;;;;;;0.60;0.50;;;8.60;99.90;;;;;;5046279;28;20525;-68
2024/02/22 02:11:54;;;;;;;0.70;0.40;;;8.60;99.90;;;;;;5045805;28;20177;-67
2024/02/22 02:14:20;;;;;;;0.80;0.40;;;8.60;99.90;;;;;;5053658;28;20190;-68
2024/02/22 02:16:45;;;;;;;0.60;0.40;;;8.70;99.90;;;;;;5048262;28;20443;-68
2024/02/22 02:19:18;;;;;;;0.73;0.50;;;8.70;99.90;;;;;;5044346;28;20593;-68
2024/02/22 02:22:20;;;;;;;0.70;0.47;;;8.70;99.90;;;;;;5052868;28;20204;-68
2024/02/22 02:25:02;;;;;;;0.70;0.50;;;8.70;99.90;;;;;;5053683;28;20427;-68
2024/02/22 02:27:28;;;;;;;0.70;0.40;;;8.70;99.90;;;;;;5045729;28;20487;-68
2024/02/22 02:29:53;;;;;;;0.70;0.50;;;8.60;99.90;;;;;;5038646;28;20790;-67
2024/02/22 02:32:19;;;;;;;0.70;0.50;;;8.70;99.90;;;;;;5043067;28;20234;-69
2024/02/22 02:34:44;;;;;;;0.80;0.47;;;8.70;99.90;;;;;;5040202;28;20253;-67
2024/02/22 02:37:13;;;;;;;0.80;0.50;;;8.70;99.90;;;;;;5044206;28;20201;-68
2024/02/22 02:39:41;;;;;;;0.70;0.40;;;8.70;99.90;;;;;;5043737;28;20194;-68
2024/02/22 02:42:07;;;;;;;0.70;0.50;;;8.70;99.90;;;;;;5043602;28;20856;-68
2024/02/22 02:44:32;;;;;;;0.70;0.50;;;8.70;99.90;;;;;;5045265;28;20428;-68
2024/02/22 02:46:58;;;;;;;0.70;0.50;;;8.70;99.90;;;;;;5046554;28;20210;-68
2024/02/22 02:49:23;;;;;;;0.70;0.43;;;8.70;99.90;;;;;;5044125;28;20194;-68
2024/02/22 02:51:49;;;;;;;0.70;0.50;;;8.70;99.90;;;;;;5045225;28;20226;-69
2024/02/22 02:54:15;;;;;;;0.70;0.50;;;8.70;99.90;;;;;;5040209;28;20186;-67
2024/02/22 02:56:40;;;;;;;0.70;0.50;;;8.70;99.90;;;;;;5046516;28;20202;-67
2024/02/22 02:59:06;;;;;;;0.80;0.57;;;8.70;99.90;;;;;;5020646;28;20452;-68
2024/02/22 03:01:32;;;;;;;0.70;0.50;;;8.70;99.90;;;;;;5042081;28;20565;-69
2024/02/22 03:03:58;;;;;;;0.70;0.40;;;8.70;99.90;;;;;;5050817;28;20205;-68
2024/02/22 03:06:23;;;;;;;0.70;0.50;;;8.70;99.90;;;;;;5048057;28;20758;-68
2024/02/22 03:08:49;;;;;;;0.70;0.50;;;8.70;99.90;;;;;;5050351;28;20485;-69
2024/02/22 03:11:15;;;;;;;0.73;0.50;;;8.70;99.90;;;;;;5047841;28;20667;-68
2024/02/22 03:13:41;;;;;;;1.10;0.70;;;8.70;99.90;;;;;;5050043;28;20209;-68
2024/02/22 03:16:07;;;;;;;0.70;0.50;;;8.70;99.90;;;;;;5052622;28;20202;-69
2024/02/22 03:18:36;;;;;;;0.97;0.50;;;8.70;99.90;;;;;;5044935;28;20438;-67
2024/02/22 03:21:02;;;;;;;0.70;0.50;;;8.70;99.90;;;;;;5042961;28;20408;-67
2024/02/22 03:23:27;;;;;;;0.80;0.50;;;8.80;99.90;;;;;;5039312;28;20427;-67
2024/02/22 03:25:54;;;;;;;0.70;0.40;;;8.70;99.90;;;;;;5056292;28;20213;-68
2024/02/22 03:28:21;;;;;;;0.80;0.50;;;8.70;99.90;;;;;;5043796;28;20602;-67
2024/02/22 03:30:46;;;;;;;0.80;0.50;;;8.70;99.90;;;;;;5045908;28;20404;-67
2024/02/22 03:33:13;;;;;;;0.90;0.60;;;8.80;99.90;;;;;;5045830;28;20461;-67
2024/02/22 03:35:39;;;;;;;0.80;0.50;;;8.70;99.90;;;;;;5045988;28;20221;-68
2024/02/22 03:38:05;;;;;;;0.70;0.50;;;8.80;99.90;;;;;;5046445;28;20424;-68
2024/02/22 03:40:30;;;;;;;0.80;0.40;;;8.80;99.90;;;;;;5035856;28;20472;-67
2024/02/22 03:42:57;;;;;;;0.70;0.50;;;8.80;99.90;;;;;;5052761;28;20194;-69
2024/02/22 03:45:23;;;;;;;0.70;0.50;;;8.80;99.90;;;;;;5053283;28;20186;-68
2024/02/22 03:47:50;;;;;;;1.47;0.50;;;8.80;99.90;;;;;;5044159;28;20436;-68
2024/02/22 03:50:16;;;;;;;0.63;0.40;;;8.80;99.90;;;;;;5034878;28;20575;-69
2024/02/22 03:52:41;;;;;;;0.70;0.50;;;8.80;99.90;;;;;;5044653;28;20550;-68
2024/02/22 03:55:09;;;;;;;0.60;0.40;;;8.80;99.90;;;;;;5052019;28;20891;-68
2024/02/22 03:57:35;;;;;;;0.70;0.40;;;8.70;99.90;;;;;;5046156;28;20202;-69
2024/02/22 04:00:06;;;;;;;0.80;0.50;;;8.80;99.90;;;;;;5049774;28;20428;-67
2024/02/22 04:02:38;;;;;;;0.70;0.40;;;8.80;99.90;;;;;;5044630;28;20186;-68
2024/02/22 04:05:04;;;;;;;0.77;0.50;;;8.80;99.90;;;;;;5033784;28;20457;-68
2024/02/22 04:07:30;;;;;;;0.70;0.50;;;8.80;99.90;;;;;;5045857;28;20445;-67
2024/02/22 04:09:56;;;;;;;1.10;0.50;;;8.80;99.90;;;;;;5044912;28;20503;-68
2024/02/22 04:12:21;;;;;;;1.10;0.60;;;8.80;99.90;;;;;;5034183;28;20214;-68
2024/02/22 04:14:47;;;;;;;0.83;0.63;;;8.80;99.90;;;;;;5041849;28;20224;-69
2024/02/22 04:17:13;;;;;;;1.00;0.60;;;8.80;99.90;;;;;;5051869;28;20233;-67
2024/02/22 04:19:38;;;;;;;0.77;0.50;;;8.80;99.90;;;;;;5041099;28;20189;-68
2024/02/22 04:22:04;;;;;;;0.70;0.50;;;8.90;99.90;;;;;;5035859;28;20190;-69
2024/02/22 04:24:29;;;;;;;0.77;0.53;;;8.80;99.90;;;;;;5042815;28;20220;-66
2024/02/22 04:26:55;;;;;;;1.27;0.50;;;8.80;99.90;;;;;;5046399;28;20205;-68
2024/02/22 04:29:21;;;;;;;0.60;0.50;;;8.80;99.90;;;;;;5040363;28;20221;-68
2024/02/22 04:31:47;;;;;;;0.70;0.50;;;8.80;99.90;;;;;;5045176;28;20226;-67
2024/02/22 04:34:13;;;;;;;0.93;0.77;;;8.90;99.90;;;;;;5040072;28;20197;-68
2024/02/22 04:36:42;;;;;;;0.80;0.50;;;8.90;99.90;;;;;;5054300;28;20428;-67
2024/02/22 04:39:11;;;;;;;1.27;0.40;;;8.90;99.90;;;;;;5048326;28;20424;-67
2024/02/22 04:41:38;;;;;;;1.00;0.70;;;8.80;99.90;;;;;;5036673;28;20398;-68
2024/02/22 04:44:04;;;;;;;0.70;0.60;;;8.80;99.90;;;;;;5019698;28;20524;-68
2024/02/22 04:46:33;;;;;;;0.80;0.60;;;8.80;99.90;;;;;;5043973;28;20459;-68
2024/02/22 04:49:01;;;;;;;0.70;0.40;;;8.80;99.90;;;;;;5043203;28;20432;-68
2024/02/22 04:51:29;;;;;;;0.70;0.43;;;8.80;99.90;;;;;;5041114;28;20428;-68
2024/02/22 04:53:54;;;;;;;0.70;0.50;;;8.80;99.90;;;;;;5049137;28;20921;-69
2024/02/22 04:56:20;;;;;;;0.73;0.50;;;8.80;99.90;;;;;;5045789;28;20440;-68
2024/02/22 04:58:46;;;;;;;0.67;0.47;;;8.80;99.90;;;;;;5045695;28;20413;-68
2024/02/22 05:01:11;;;;;;;0.70;0.50;;;8.80;99.90;;;;;;5046885;28;20190;-68
2024/02/22 05:03:38;;;;;;;0.70;0.40;;;8.70;99.90;;;;;;5038027;28;20190;-68
2024/02/22 05:06:05;;;;;;;0.70;0.40;;;8.70;99.90;;;;;;5044011;28;20300;-68
2024/02/22 05:08:31;;;;;;;0.70;0.40;;;8.70;99.90;;;;;;5053126;28;20490;-67
2024/02/22 05:10:56;;;;;;;0.60;0.40;;;8.70;99.90;;;;;;5044683;28;20508;-68
2024/02/22 05:13:22;;;;;;;1.10;0.50;;;8.70;99.90;;;;;;5038531;28;20202;-68
2024/02/22 05:15:48;;;;;;;0.60;0.40;;;8.70;99.90;;;;;;5054021;28;20553;-68
2024/02/22 05:18:13;;;;;;;0.70;0.43;;;8.70;99.90;;;;;;5043596;28;20201;-68
2024/02/22 05:20:39;;;;;;;0.60;0.40;;;8.70;99.90;;;;;;5053896;28;20404;-68
2024/02/22 05:23:06;;;;;;;0.80;0.40;;;8.70;99.90;;;;;;5055124;28;20276;-69
2024/02/22 05:25:32;;;;;;;0.60;0.40;;;8.70;99.90;;;;;;5050753;28;20639;-69
2024/02/22 05:27:57;;;;;;;0.70;0.40;;;8.70;99.90;;;;;;5044270;28;20416;-68
2024/02/22 05:30:23;;;;;;;0.70;0.50;;;8.70;99.90;;;;;;5047009;28;20202;-68
2024/02/22 05:32:49;;;;;;;0.70;0.40;;;8.70;99.90;;;;;;5038337;28;20232;-67
2024/02/22 05:35:14;;;;;;;0.70;0.50;;;8.70;99.90;;;;;;5044468;28;20269;-68
2024/02/22 05:37:40;;;;;;;0.67;0.40;;;8.70;99.90;;;;;;5056046;28;20220;-69
2024/02/22 05:40:09;;;;;;;0.70;0.40;;;8.70;99.90;;;;;;5045320;28;20190;-69
2024/02/22 05:42:35;;;;;;;1.10;0.40;;;8.70;99.90;;;;;;5049972;28;20198;-69
2024/02/22 05:45:00;;;;;;;0.70;0.50;;;8.70;99.90;;;;;;5047187;28;20425;-68
2024/02/22 05:47:26;;;;;;;0.80;0.50;;;8.70;99.90;;;;;;5041073;28;20197;-67
2024/02/22 05:49:52;;;;;;;0.80;0.50;;;8.70;99.90;;;;;;5045341;28;20186;-68
2024/02/22 05:52:18;;;;;;;0.60;0.40;;;8.70;99.90;;;;;;5044476;28;20214;-69
2024/02/22 05:54:46;;;;;;;0.80;0.50;;;8.70;99.90;;;;;;5045127;28;20244;-70
2024/02/22 05:57:12;;;;;;;0.90;0.70;;;8.70;99.90;;;;;;5052602;28;20229;-70
2024/02/22 05:59:39;;;;;;;0.70;0.50;;;8.70;99.90;;;;;;5053808;28;20452;-70
2024/02/22 06:02:04;;;;;;;0.70;0.50;;;8.70;99.90;;;;;;5042956;28;20429;-69
2024/02/22 06:04:30;;;;;;;0.70;0.40;;;8.70;99.90;;;;;;5039992;28;20481;-68
2024/02/22 06:06:55;;;;;;;0.70;0.50;;;8.70;99.90;;;;;;5040767;28;20281;-68
2024/02/22 06:09:21;;;;;;;0.60;0.40;;;8.70;99.90;;;;;;5056093;28;20208;-69
2024/02/22 06:11:47;;;;;;;0.70;0.43;;;8.70;99.90;;;;;;5046325;28;20484;-68
2024/02/22 06:14:12;;;;;;;0.60;0.50;;;8.70;99.90;;;;;;5044645;28;20585;-70
2024/02/22 06:16:38;;;;;;;0.80;0.50;;;8.70;99.90;;;;;;5040584;28;20266;-70
2024/02/22 06:19:04;;;;;;;0.70;0.50;;;8.80;99.90;;;;;;5044994;28;20225;-68
2024/02/22 06:21:30;;;;;;;0.80;0.60;;;8.80;99.90;;;;;;5038248;28;20346;-69
2024/02/22 06:23:55;;;;;;;0.70;0.50;;;8.80;99.90;;;;;;5054966;28;20432;-70
2024/02/22 06:26:21;;;;;;;0.80;0.50;;;8.70;99.90;;;;;;5044980;28;20229;-69
2024/02/22 06:28:47;;;;;;;0.77;0.50;;;8.70;99.90;;;;;;5057231;28;20220;-70
2024/02/22 06:31:13;;;;;;;0.60;0.40;;;8.70;99.90;;;;;;5049249;28;20239;-71
2024/02/22 06:33:39;;;;;;;0.80;0.50;;;8.70;99.90;;;;;;5025767;28;20230;-72
2024/02/22 06:36:06;;;;;;;0.70;0.50;;;8.70;99.90;;;;;;5037031;28;20490;-70
2024/02/22 06:38:32;;;;;;;1.10;0.70;;;8.80;99.90;;;;;;5042915;28;20190;-71
2024/02/22 06:41:00;;;;;;;0.77;0.50;;;8.80;99.90;;;;;;5054173;28;20426;-73
2024/02/22 06:43:26;;;;;;;0.83;0.53;;;8.80;99.90;;;;;;5047472;28;20592;-72
2024/02/22 06:45:51;;;;;;;0.80;0.50;;;8.80;99.90;;;;;;5046110;28;20443;-73
2024/02/22 06:48:17;;;;;;;0.90;0.60;;;8.80;99.90;;;;;;5046507;28;20237;-69
2024/02/22 06:50:43;;;;;;;0.90;0.67;;;8.80;99.90;;;;;;5038629;28;20193;-73
2024/02/22 06:53:08;;;;;;;1.13;0.40;;;8.80;99.90;;;;;;5046531;28;20241;-69
2024/02/22 06:55:34;;;;;;;1.00;0.67;;;8.90;99.90;;;;;;5047236;28;20213;-70
2024/02/22 06:58:02;;;;;;;0.90;0.60;;;8.80;99.90;;;;;;5045796;28;20181;-71
2024/02/22 07:00:28;;;;;;;0.97;0.60;;;8.80;99.90;;;;;;5048918;28;20305;-71
2024/02/22 07:02:54;;;;;;;0.70;0.50;;;8.90;99.90;;;;;;5057243;28;20408;-71
2024/02/22 07:05:20;;;;;;;1.10;0.60;;;8.90;99.90;;;;;;5059742;28;20420;-71
2024/02/22 07:07:46;;;;;;;0.70;0.50;;;8.90;99.90;;;;;;5051885;28;20411;-73
2024/02/22 07:10:14;;;;;;;0.90;0.60;;;8.90;99.90;;;;;;5039779;28;20499;-69
2024/02/22 07:12:43;;;;;;;0.90;0.60;;;8.90;99.90;;;;;;5058150;28;20205;-72
2024/02/22 07:15:10;;;;;;;0.90;0.60;;;8.90;99.90;;;;;;5055394;28;20500;-71
2024/02/22 07:17:36;;;;;;;0.80;0.50;;;9.00;99.90;;;;;;5018156;28;20477;-74
2024/02/22 07:20:01;;;;;;;0.87;0.50;;;9.00;99.90;;;;;;5049356;28;20424;-71
2024/02/22 07:22:27;;;;;;;0.83;0.50;;;9.00;99.90;;;;;;5047396;28;20194;-71
2024/02/22 07:24:52;;;;;;;0.90;0.53;;;9.00;99.90;;;;;;5047149;28;20355;-73
2024/02/22 07:27:18;;;;;;;0.80;0.60;;;9.00;99.90;;;;;;5056625;28;20278;-71
2024/02/22 07:29:43;;;;;;;0.70;0.50;;;9.00;99.90;;;;;;5044488;28;20186;-71
2024/02/22 07:32:10;;;;;;;0.70;0.50;;;9.00;99.90;;;;;;5050805;28;20236;-73
2024/02/22 07:34:36;;;;;;;0.80;0.50;;;9.10;99.90;;;;;;5024492;28;20201;-70
2024/02/22 07:37:01;;;;;;;0.70;0.50;;;9.00;99.90;;;;;;5051155;28;20445;-70
2024/02/22 07:39:27;;;;;;;0.90;0.50;;;9.00;99.90;;;;;;5042669;28;20193;-73
2024/02/22 07:41:53;;;;;;;0.70;0.50;;;9.10;99.90;;;;;;5052775;28;20191;-71
2024/02/22 07:44:18;;;;;;;0.80;0.60;;;9.10;99.90;;;;;;5017987;28;20213;-71
2024/02/22 07:46:44;;;;;;;0.90;0.60;;;9.10;99.90;;;;;;5051908;28;20214;-71
2024/02/22 07:49:10;;;;;;;0.80;0.50;;;9.10;99.90;;;;;;5040572;28;20190;-72
2024/02/22 07:51:36;;;;;;;0.80;0.53;;;9.20;99.90;;;;;;5042928;28;20256;-71
2024/02/22 07:54:01;;;;;;;0.87;0.60;;;9.20;99.90;;;;;;5047023;28;20455;-71
2024/02/22 07:56:27;;;;;;;0.90;0.60;;;9.30;99.90;;;;;;5051508;28;20210;-71
2024/02/22 07:58:56;;;;;;;0.73;0.53;;;9.30;99.90;;;;;;5042229;28;20481;-70
2024/02/22 08:01:22;;;;;;;0.90;0.60;;;9.30;99.90;;;;;;5044939;28;20601;-74
2024/02/22 08:03:49;;;;;;;1.10;0.70;;;9.30;99.90;;;;;;5013271;28;20509;-70
2024/02/22 08:06:15;;;;;;;1.10;0.60;;;9.40;99.90;;;;;;5046735;28;20377;-72
2024/02/22 08:08:42;;;;;;;1.10;0.80;;;9.50;99.90;;;;;;5027085;28;20904;-71
2024/02/22 08:11:13;;;;;;;1.27;0.80;;;9.60;99.90;;;;;;5044991;28;20433;-70
2024/02/22 08:13:38;;;;;;;1.30;0.90;;;9.60;99.90;;;;;;5047435;28;20292;-70
2024/02/22 08:16:05;;;;;;;0.80;0.60;;;9.60;99.90;;;;;;5040482;28;20468;-70
2024/02/22 08:18:35;;;;;;;1.00;0.70;;;9.60;99.90;;;;;;5038706;28;20273;-73
2024/02/22 08:21:02;;;;;;;0.90;0.60;;;9.70;99.90;;;;;;5053002;28;20542;-71
2024/02/22 08:23:28;;;;;;;1.10;0.60;;;9.70;99.90;;;;;;5042065;28;20442;-73
2024/02/22 08:25:55;;;;;;;1.03;0.70;;;9.70;99.90;;;;;;5033656;28;20879;-71
2024/02/22 08:28:21;;;;;;;0.80;0.53;;;9.70;99.90;;;;;;5037439;28;20429;-71
2024/02/22 08:30:47;;;;;;;0.93;0.60;;;9.70;99.90;;;;;;5045219;28;20436;-71
2024/02/22 08:33:13;;;;;;;0.87;0.73;;;9.70;99.90;;;;;;5034248;28;20958;-72
2024/02/22 08:35:39;;;;;;;1.00;0.73;;;9.70;99.90;;;;;;5059198;28;20214;-73
2024/02/22 08:38:05;;;;;;;1.10;0.80;;;9.60;99.90;;;;;;5052277;28;20906;-71
2024/02/22 08:40:30;;;;;;;1.00;0.60;;;9.70;99.90;;;;;;5028256;28;20651;-72
2024/02/22 08:43:00;;;;;;;1.10;0.80;;;9.70;99.90;;;;;;5028569;28;20606;-73
2024/02/22 08:45:26;;;;;;;1.50;1.20;;;9.70;99.90;;;;;;5037102;28;20193;-71
2024/02/22 08:47:52;;;;;;;3.00;1.50;;;9.60;99.90;;;;;;5033820;28;20417;-72
2024/02/22 08:50:17;;;;;;;2.40;1.80;;;9.60;99.90;;;;;;5030596;28;20440;-70
2024/02/22 08:52:43;;;;;;;2.00;1.73;;;9.60;99.90;;;;;;5021265;28;20203;-70
2024/02/22 08:55:12;;;;;;;3.00;2.10;;;9.50;99.90;;;;;;5055524;28;20182;-70
2024/02/22 08:57:38;;;;;;;2.50;1.30;;;9.60;99.90;;;;;;5042633;28;20625;-73
2024/02/22 09:00:06;;;;;;;1.90;1.30;;;9.60;99.90;;;;;;5036358;28;20441;-72
2024/02/22 09:02:32;;;;;;;1.90;1.30;;;9.70;99.90;;;;;;5052963;28;20397;-73
2024/02/22 09:04:58;;;;;;;2.30;1.73;;;9.80;99.90;;;;;;5050202;28;20497;-70
2024/02/22 09:07:24;;;;;;;1.90;1.67;;;9.80;99.90;;;;;;5052313;28;20420;-70
2024/02/22 09:09:53;;;;;;;1.90;1.27;;;9.90;99.90;;;;;;5034018;28;20866;-70
2024/02/22 09:12:20;;;;;;;1.73;1.20;;;10.00;99.90;;;;;;5057407;28;20538;-72
2024/02/22 09:14:45;;;;;;;1.90;1.30;;;10.00;99.90;;;;;;5041490;28;20428;-71
2024/02/22 09:17:11;;;;;;;1.90;1.70;;;10.10;99.90;;;;;;5044381;28;20528;-71
2024/02/22 09:19:37;;;;;;;2.37;1.40;;;10.10;99.90;;;;;;5029249;28;20288;-71
2024/02/22 09:22:03;;;;;;;1.97;1.23;;;10.20;99.90;;;;;;5053744;28;20183;-73
2024/02/22 09:24:29;;;;;;;2.03;1.60;;;10.20;99.90;;;;;;5058750;28;20186;-70
2024/02/22 09:26:57;;;;;;;1.93;1.50;;;10.30;99.90;;;;;;5038897;28;20457;-73
2024/02/22 09:29:26;;;;;;;2.10;1.70;;;10.30;99.90;;;;;;5030189;28;20416;-71
2024/02/22 09:31:55;;;;;;;3.37;1.67;;;10.30;99.90;;;;;;5055333;28;20445;-72
2024/02/22 09:34:22;;;;;;;3.00;1.70;;;10.30;99.90;;;;;;5042940;28;20433;-73
2024/02/22 09:36:48;;;;;;;3.90;2.10;;;10.40;99.90;;;;;;5030445;28;20912;-71
2024/02/22 09:39:14;;;;;;;2.10;1.50;;;10.40;99.90;;;;;;5045749;28;20480;-71
2024/02/22 09:41:42;;;;;;;1.80;1.43;;;10.50;99.90;;;;;;5050076;28;20671;-71
2024/02/22 09:44:10;;;;;;;1.80;1.40;;;10.50;99.90;;;;;;5050238;28;20420;-71
2024/02/22 09:46:37;;;;;;;2.97;2.40;;;10.50;99.90;;;;;;5038901;28;20522;-70
2024/02/22 09:49:03;;;;;;;3.30;2.03;;;10.50;99.90;;;;;;5041635;28;20503;-73
2024/02/22 09:51:30;;;;;;;3.10;2.17;;;10.60;99.90;;;;;;5050721;28;20428;-74
2024/02/22 09:53:56;;;;;;;2.30;1.53;;;10.50;99.90;;;;;;5061456;28;20308;-50
2024/02/22 09:56:24;;;;;;;3.00;1.60;;;10.60;99.90;;;;;;5049238;28;20810;-51
2024/02/22 09:58:49;;;;;;;2.73;1.57;;;10.60;99.90;;;;;;5042680;28;20457;-49
2024/02/22 10:01:15;;;;;;;3.15;2.38;;;10.70;99.90;;;;;;5051917;28;20444;-50
2024/02/22 10:03:41;;;;;;;2.20;2.00;;;10.80;99.90;;;;;;5041478;28;20682;-49
2024/02/22 10:06:17;;;;;;;2.20;1.80;;;10.70;99.90;;;;;;5039124;28;20223;-51
2024/02/22 10:08:44;;;;;;;3.10;2.03;;;10.80;99.90;;;;;;5044913;28;20240;-52
2024/02/22 10:11:10;;;;;;;3.20;2.00;;;10.80;99.90;;;;;;5052775;28;20512;-50
2024/02/22 10:13:36;;;;;;;2.33;2.10;;;10.80;99.90;;;;;;5040558;28;20556;-50
2024/02/22 10:16:21;;;;;;;2.63;1.80;;;10.90;99.90;;;;;;5045524;28;20249;-47
2024/02/22 10:18:49;;;;;;;3.70;2.00;;;11.00;99.90;;;;;;5040361;28;20216;-49
2024/02/22 10:21:18;;;;;;;2.70;1.80;;;11.10;99.90;;;;;;5041940;28;20421;-47
2024/02/22 10:23:54;;;;;;;2.17;1.60;;;11.10;99.90;;;;;;5028589;28;20435;-51
2024/02/22 10:26:20;;;;;;;1.87;1.40;;;11.20;99.90;;;;;;5042315;28;20506;-46
2024/02/22 10:28:53;;;;;;;3.50;1.60;;;11.20;99.90;;;;;;5052883;28;20948;-54
2024/02/22 10:31:19;;;;;;;3.23;1.90;;;11.10;99.90;;;;;;5040558;28;20222;-53
2024/02/22 10:33:45;;;;;;;2.70;1.30;;;11.10;99.90;;;;;;5042438;28;20466;-51
2024/02/22 10:36:12;;;;;;;1.90;1.30;;;11.20;99.90;;;;;;5054156;28;20369;-48
2024/02/22 10:38:39;;;;;;;2.07;1.03;;;11.40;99.90;;;;;;5046381;28;20421;-50
2024/02/22 10:41:08;;;;;;;1.87;0.90;;;11.40;99.90;;;;;;5052657;28;20457;-46
2024/02/22 10:43:35;;;;;;;2.43;0.70;;;11.40;99.90;;;;;;5040954;28;20436;-51
2024/02/22 10:46:03;;;;;;;1.37;1.13;;;11.60;99.90;;;;;;5034221;28;20437;-55
2024/02/22 10:48:33;;;;;;;1.30;0.70;;;11.60;99.90;;;;;;5047550;28;20440;-50
2024/02/22 10:51:05;;;;;;;1.40;0.90;;;11.70;99.90;;;;;;5046635;28;20500;-47
2024/02/22 10:53:39;;;;;;;1.27;0.87;;;11.80;99.90;;;;;;5041033;28;20509;-52
2024/02/22 10:56:06;;;;;;;2.00;0.80;;;11.90;99.90;;;;;;5053928;28;20441;-50
2024/02/22 10:58:35;;;;;;;0.87;0.80;;;12.00;99.90;;;;;;5045395;28;20444;-49
2024/02/22 11:01:05;;;;;;;1.37;0.87;;;12.10;99.90;;;;;;5033123;28;20770;-53
2024/02/22 11:03:33;;;;;;;2.40;0.80;;;12.30;99.90;;;;;;5039021;28;20426;-51
2024/02/22 11:06:03;;;;;;;1.00;0.70;;;12.40;99.90;;;;;;5037739;28;20441;-50
2024/02/22 11:08:29;;;;;;;2.80;0.70;;;12.70;99.90;;;;;;5056982;28;20428;-71
2024/02/22 11:11:01;;;;;;;1.17;0.70;;;13.00;99.90;;;;;;5050259;28;20433;-73
2024/02/22 11:13:26;;;;;;;1.37;0.70;;;13.10;99.90;;;;;;5037545;28;20468;-72
2024/02/22 11:15:52;;;;;;;0.87;0.80;;;13.20;99.90;;;;;;5029409;28;20468;-73
2024/02/22 11:18:25;;;;;;;2.80;1.30;;;13.40;99.90;;;;;;5034391;28;20481;-73
2024/02/22 11:20:51;;;;;;;0.90;0.73;;;13.60;99.90;;;;;;5056152;28;20183;-72
2024/02/22 11:23:18;;;;;;;0.90;0.60;;;13.80;99.90;;;;;;5053704;28;20414;-75
2024/02/22 11:25:45;;;;;;;1.50;1.10;;;13.90;99.90;;;;;;5052436;28;20453;-73
2024/02/22 11:28:11;;;;;;;1.83;1.20;;;13.70;99.90;;;;;;5055280;28;20519;-73
2024/02/22 11:30:37;;;;;;;2.83;0.73;;;13.80;99.90;;;;;;5056792;28;20444;-73
2024/02/22 11:33:04;;;;;;;1.27;0.80;;;14.00;99.90;;;;;;5054989;28;20448;-72
2024/02/22 11:35:30;;;;;;;1.63;0.90;;;14.20;99.90;;;;;;5053273;28;20407;-73
2024/02/22 11:38:00;;;;;;;0.90;0.70;;;14.30;99.90;;;;;;5016722;28;20454;-71
2024/02/22 11:40:30;;;;;;;1.10;0.90;;;14.40;99.90;;;;;;5051080;28;20467;-70
2024/02/22 11:42:58;;;;;;;2.53;1.30;;;14.60;99.90;;;;;;5025766;28;20420;-74
2024/02/22 11:45:24;;;;;;;2.57;1.27;;;14.70;99.90;;;;;;5022103;28;20530;-73
2024/02/22 11:47:50;;;;;;;1.30;0.90;;;14.70;99.90;;;;;;5029175;28;20434;-73
2024/02/22 11:50:16;;;;;;;1.80;0.93;;;14.70;99.90;;;;;;5032394;28;20502;-73
2024/02/22 11:52:43;;;;;;;4.13;2.60;;;14.80;99.90;;;;;;5030753;28;20229;-72
2024/02/22 11:55:10;;;;;;;1.10;0.97;;;14.80;99.90;;;;;;5054822;28;20427;-72
2024/02/22 11:57:36;;;;;;;1.20;0.60;;;14.90;99.90;;;;;;5045636;28;20496;-75
2024/02/22 12:00:04;;;;;;;1.77;0.90;;;14.80;99.90;;;;;;5031113;28;20497;-72
2024/02/22 12:02:38;;;;;;;1.00;0.60;;;14.70;99.90;;;;;;5039427;28;20183;-72
2024/02/22 12:05:06;;;;;;;4.80;1.43;;;14.50;99.90;;;;;;5048442;28;20422;-72
2024/02/22 12:07:33;;;;;;;1.77;1.20;;;14.50;99.90;;;;;;5045276;28;20452;-73
2024/02/22 12:09:59;;;;;;;5.33;0.90;;;14.40;99.90;;;;;;5030978;28;20419;-73
2024/02/22 12:12:25;;;;;;;1.60;0.60;;;14.30;99.90;;;;;;5028391;28;20456;-74
2024/02/22 12:15:04;;;;;;;1.60;0.60;;;14.30;99.90;;;;;;5036660;28;20179;-75
2024/02/22 12:17:34;;;;;;;1.40;0.60;;;14.30;99.90;;;;;;5052397;28;20873;-74
2024/02/22 12:20:01;;;;;;;1.97;0.70;;;14.30;99.90;;;;;;5040811;28;20420;-73
2024/02/22 12:22:31;;;;;;;1.10;0.70;;;14.30;99.90;;;;;;5046067;28;20866;-73
2024/02/22 12:24:57;;;;;;;0.90;0.57;;;14.30;99.90;;;;;;5052475;28;20475;-73
2024/02/22 12:27:24;;;;;;;1.83;0.80;;;14.30;99.90;;;;;;5055563;28;20507;-74
2024/02/22 12:29:50;;;;;;;1.10;0.80;;;14.40;99.90;;;;;;5044498;28;20429;-73
2024/02/22 12:32:16;;;;;;;1.67;0.83;;;14.40;99.90;;;;;;5052285;28;20824;-76
2024/02/22 12:34:41;;;;;;;1.30;0.80;;;14.40;99.90;;;;;;5056434;28;20481;-74
2024/02/22 12:37:07;;;;;;;1.23;0.80;;;14.40;99.90;;;;;;5056705;28;20291;-72
2024/02/22 12:39:33;;;;;;;1.60;0.73;;;14.40;99.90;;;;;;5050033;28;20183;-73
2024/02/22 12:42:02;;;;;;;0.93;0.60;;;14.40;99.90;;;;;;5060980;28;20186;-74
2024/02/22 12:44:28;;;;;;;1.40;0.90;;;14.40;99.90;;;;;;5041168;28;20650;-70
2024/02/22 12:46:54;;;;;;;1.10;0.80;;;14.40;99.90;;;;;;5034695;28;20453;-74
2024/02/22 12:49:21;;;;;;;1.53;1.10;;;14.40;99.90;;;;;;5039393;28;20186;-73
2024/02/22 12:51:47;;;;;;;1.97;0.90;;;14.50;99.90;;;;;;5041523;28;20190;-71